sensor_id;sensor_type;location;lat;lon;timestamp;P1;durP1;ratioP1;P2;durP2;ratioP2
60665;SDS011;59128;44.642;21.188;2022-10-31T00:02:12;157.80;;;90.32;;
60665;SDS011;59128;44.642;21.188;2022-10-31T00:04:38;149.60;;;85.22;;
60665;SDS011;59128;44.642;21.188;2022-10-31T00:07:04;164.55;;;89.88;;
60665;SDS011;59128;44.642;21.188;2022-10-31T00:09:30;158.90;;;88.22;;
60665;SDS011;59128;44.642;21.188;2022-10-31T00:11:56;165.68;;;90.57;;
60665;SDS011;59128;44.642;21.188;2022-10-31T00:14:22;156.40;;;85.55;;
60665;SDS011;59128;44.642;21.188;2022-10-31T00:16:49;174.18;;;90.05;;
60665;SDS011;59128;44.642;21.188;2022-10-31T00:19:15;168.38;;;90.20;;
60665;SDS011;59128;44.642;21.188;2022-10-31T00:21:41;180.00;;;91.20;;
60665;SDS011;59128;44.642;21.188;2022-10-31T00:24:07;165.73;;;85.40;;
60665;SDS011;59128;44.642;21.188;2022-10-31T00:26:33;152.73;;;84.10;;
60665;SDS011;59128;44.642;21.188;2022-10-31T00:29:00;143.75;;;81.35;;
60665;SDS011;59128;44.642;21.188;2022-10-31T00:31:26;143.18;;;80.38;;
60665;SDS011;59128;44.642;21.188;2022-10-31T00:33:52;140.77;;;80.82;;
60665;SDS011;59128;44.642;21.188;2022-10-31T00:36:18;141.88;;;80.93;;
60665;SDS011;59128;44.642;21.188;2022-10-31T00:38:45;144.00;;;81.10;;
60665;SDS011;59128;44.642;21.188;2022-10-31T00:41:12;138.07;;;79.28;;
60665;SDS011;59128;44.642;21.188;2022-10-31T00:43:41;139.27;;;80.53;;
60665;SDS011;59128;44.642;21.188;2022-10-31T00:46:07;133.98;;;77.60;;
60665;SDS011;59128;44.642;21.188;2022-10-31T00:48:33;143.67;;;79.53;;
60665;SDS011;59128;44.642;21.188;2022-10-31T00:51:00;144.82;;;79.43;;
60665;SDS011;59128;44.642;21.188;2022-10-31T00:53:26;157.40;;;83.07;;
60665;SDS011;59128;44.642;21.188;2022-10-31T00:55:52;158.43;;;83.25;;
60665;SDS011;59128;44.642;21.188;2022-10-31T00:58:18;155.65;;;81.28;;
60665;SDS011;59128;44.642;21.188;2022-10-31T01:00:46;156.45;;;81.95;;
60665;SDS011;59128;44.642;21.188;2022-10-31T01:03:12;183.27;;;85.47;;
60665;SDS011;59128;44.642;21.188;2022-10-31T01:05:38;163.57;;;84.82;;
60665;SDS011;59128;44.642;21.188;2022-10-31T01:08:04;145.33;;;81.13;;
60665;SDS011;59128;44.642;21.188;2022-10-31T01:10:30;142.98;;;78.50;;
60665;SDS011;59128;44.642;21.188;2022-10-31T01:12:56;147.35;;;78.38;;
60665;SDS011;59128;44.642;21.188;2022-10-31T01:15:23;153.50;;;80.80;;
60665;SDS011;59128;44.642;21.188;2022-10-31T01:17:49;156.32;;;82.22;;
60665;SDS011;59128;44.642;21.188;2022-10-31T01:20:15;140.48;;;77.50;;
60665;SDS011;59128;44.642;21.188;2022-10-31T01:22:41;147.30;;;77.90;;
60665;SDS011;59128;44.642;21.188;2022-10-31T01:25:08;149.68;;;79.60;;
60665;SDS011;59128;44.642;21.188;2022-10-31T01:27:34;161.90;;;80.25;;
60665;SDS011;59128;44.642;21.188;2022-10-31T01:30:00;149.32;;;79.53;;
60665;SDS011;59128;44.642;21.188;2022-10-31T01:32:27;149.25;;;78.22;;
60665;SDS011;59128;44.642;21.188;2022-10-31T01:34:56;177.05;;;83.97;;
60665;SDS011;59128;44.642;21.188;2022-10-31T01:37:22;161.30;;;79.60;;
60665;SDS011;59128;44.642;21.188;2022-10-31T01:39:48;157.95;;;80.00;;
60665;SDS011;59128;44.642;21.188;2022-10-31T01:42:19;139.55;;;76.38;;
60665;SDS011;59128;44.642;21.188;2022-10-31T01:45:03;148.68;;;77.10;;
60665;SDS011;59128;44.642;21.188;2022-10-31T01:47:31;184.88;;;80.60;;
60665;SDS011;59128;44.642;21.188;2022-10-31T01:49:59;150.23;;;78.30;;
60665;SDS011;59128;44.642;21.188;2022-10-31T01:52:36;172.55;;;81.07;;
60665;SDS011;59128;44.642;21.188;2022-10-31T01:55:17;155.82;;;78.15;;
60665;SDS011;59128;44.642;21.188;2022-10-31T01:57:46;134.70;;;74.50;;
60665;SDS011;59128;44.642;21.188;2022-10-31T02:00:14;127.05;;;73.80;;
60665;SDS011;59128;44.642;21.188;2022-10-31T02:02:41;126.13;;;72.28;;
60665;SDS011;59128;44.642;21.188;2022-10-31T02:05:09;124.93;;;74.07;;
60665;SDS011;59128;44.642;21.188;2022-10-31T02:10:16;118.95;;;70.43;;
60665;SDS011;59128;44.642;21.188;2022-10-31T02:12:43;113.35;;;71.18;;
60665;SDS011;59128;44.642;21.188;2022-10-31T02:15:10;106.22;;;68.13;;
60665;SDS011;59128;44.642;21.188;2022-10-31T02:17:36;103.72;;;66.57;;
60665;SDS011;59128;44.642;21.188;2022-10-31T02:38:26;93.28;;;60.17;;
60665;SDS011;59128;44.642;21.188;2022-10-31T02:41:01;84.15;;;59.22;;
60665;SDS011;59128;44.642;21.188;2022-10-31T02:43:35;78.82;;;56.05;;
60665;SDS011;59128;44.642;21.188;2022-10-31T02:48:37;90.20;;;56.63;;
60665;SDS011;59128;44.642;21.188;2022-10-31T02:51:04;142.10;;;70.40;;
60665;SDS011;59128;44.642;21.188;2022-10-31T02:54:43;125.57;;;62.47;;
60665;SDS011;59128;44.642;21.188;2022-10-31T02:57:10;106.22;;;59.78;;
60665;SDS011;59128;44.642;21.188;2022-10-31T02:59:36;149.48;;;59.10;;
60665;SDS011;59128;44.642;21.188;2022-10-31T03:02:08;155.43;;;85.15;;
60665;SDS011;59128;44.642;21.188;2022-10-31T03:04:46;171.80;;;81.03;;
60665;SDS011;59128;44.642;21.188;2022-10-31T03:12:52;178.40;;;95.18;;
60665;SDS011;59128;44.642;21.188;2022-10-31T03:15:28;145.65;;;68.80;;
60665;SDS011;59128;44.642;21.188;2022-10-31T03:18:01;122.30;;;67.20;;
60665;SDS011;59128;44.642;21.188;2022-10-31T03:20:37;231.95;;;69.43;;
60665;SDS011;59128;44.642;21.188;2022-10-31T03:23:04;250.73;;;117.35;;
60665;SDS011;59128;44.642;21.188;2022-10-31T03:25:32;229.90;;;69.10;;
60665;SDS011;59128;44.642;21.188;2022-10-31T03:28:00;141.50;;;64.13;;
60665;SDS011;59128;44.642;21.188;2022-10-31T03:30:27;134.40;;;62.33;;
60665;SDS011;59128;44.642;21.188;2022-10-31T03:32:57;140.77;;;65.40;;
60665;SDS011;59128;44.642;21.188;2022-10-31T03:35:25;224.00;;;62.83;;
60665;SDS011;59128;44.642;21.188;2022-10-31T03:37:53;241.73;;;64.28;;
60665;SDS011;59128;44.642;21.188;2022-10-31T03:40:21;127.32;;;62.47;;
60665;SDS011;59128;44.642;21.188;2022-10-31T03:42:53;157.38;;;64.95;;
60665;SDS011;59128;44.642;21.188;2022-10-31T03:45:26;173.48;;;65.15;;
60665;SDS011;59128;44.642;21.188;2022-10-31T03:47:53;192.68;;;63.45;;
60665;SDS011;59128;44.642;21.188;2022-10-31T03:50:20;157.98;;;66.97;;
60665;SDS011;59128;44.642;21.188;2022-10-31T03:53:09;191.23;;;63.20;;
60665;SDS011;59128;44.642;21.188;2022-10-31T03:55:40;154.40;;;63.75;;
60665;SDS011;59128;44.642;21.188;2022-10-31T03:58:11;178.02;;;66.68;;
60665;SDS011;59128;44.642;21.188;2022-10-31T04:00:38;168.15;;;64.20;;
60665;SDS011;59128;44.642;21.188;2022-10-31T04:03:07;113.25;;;62.97;;
60665;SDS011;59128;44.642;21.188;2022-10-31T04:05:35;151.73;;;63.70;;
60665;SDS011;59128;44.642;21.188;2022-10-31T04:08:03;114.63;;;64.00;;
60665;SDS011;59128;44.642;21.188;2022-10-31T04:10:30;148.00;;;64.88;;
60665;SDS011;59128;44.642;21.188;2022-10-31T04:12:58;140.60;;;69.40;;
60665;SDS011;59128;44.642;21.188;2022-10-31T04:15:26;211.48;;;66.70;;
60665;SDS011;59128;44.642;21.188;2022-10-31T04:17:53;169.52;;;70.25;;
60665;SDS011;59128;44.642;21.188;2022-10-31T04:20:28;190.43;;;76.80;;
60665;SDS011;59128;44.642;21.188;2022-10-31T04:22:55;194.70;;;70.28;;
60665;SDS011;59128;44.642;21.188;2022-10-31T04:25:21;127.38;;;76.57;;
60665;SDS011;59128;44.642;21.188;2022-10-31T04:27:47;160.15;;;76.20;;
60665;SDS011;59128;44.642;21.188;2022-10-31T04:30:13;104.80;;;60.78;;
60665;SDS011;59128;44.642;21.188;2022-10-31T04:32:39;107.22;;;59.05;;
60665;SDS011;59128;44.642;21.188;2022-10-31T04:35:05;109.43;;;60.67;;
60665;SDS011;59128;44.642;21.188;2022-10-31T04:37:32;117.75;;;60.90;;
60665;SDS011;59128;44.642;21.188;2022-10-31T04:39:58;105.95;;;60.22;;
60665;SDS011;59128;44.642;21.188;2022-10-31T04:42:24;99.32;;;61.88;;
60665;SDS011;59128;44.642;21.188;2022-10-31T04:44:53;93.25;;;58.47;;
60665;SDS011;59128;44.642;21.188;2022-10-31T04:47:19;92.20;;;54.45;;
60665;SDS011;59128;44.642;21.188;2022-10-31T04:49:45;83.57;;;52.50;;
60665;SDS011;59128;44.642;21.188;2022-10-31T04:52:11;96.10;;;54.75;;
60665;SDS011;59128;44.642;21.188;2022-10-31T04:54:37;93.85;;;54.25;;
60665;SDS011;59128;44.642;21.188;2022-10-31T04:57:03;102.20;;;54.70;;
60665;SDS011;59128;44.642;21.188;2022-10-31T04:59:29;87.85;;;55.17;;
60665;SDS011;59128;44.642;21.188;2022-10-31T05:01:58;95.03;;;56.47;;
60665;SDS011;59128;44.642;21.188;2022-10-31T05:04:24;99.78;;;58.47;;
60665;SDS011;59128;44.642;21.188;2022-10-31T05:06:50;96.80;;;58.85;;
60665;SDS011;59128;44.642;21.188;2022-10-31T05:09:16;143.95;;;58.42;;
60665;SDS011;59128;44.642;21.188;2022-10-31T05:11:42;115.18;;;57.53;;
60665;SDS011;59128;44.642;21.188;2022-10-31T05:14:08;119.60;;;58.13;;
60665;SDS011;59128;44.642;21.188;2022-10-31T05:16:34;84.97;;;54.53;;
60665;SDS011;59128;44.642;21.188;2022-10-31T05:19:00;85.13;;;53.63;;
60665;SDS011;59128;44.642;21.188;2022-10-31T05:21:26;102.93;;;58.03;;
60665;SDS011;59128;44.642;21.188;2022-10-31T05:23:52;106.90;;;59.50;;
60665;SDS011;59128;44.642;21.188;2022-10-31T05:26:18;144.80;;;64.53;;
60665;SDS011;59128;44.642;21.188;2022-10-31T05:28:44;109.43;;;66.47;;
60665;SDS011;59128;44.642;21.188;2022-10-31T05:31:10;143.30;;;57.93;;
60665;SDS011;59128;44.642;21.188;2022-10-31T05:33:36;103.28;;;56.05;;
60665;SDS011;59128;44.642;21.188;2022-10-31T05:36:02;111.00;;;57.72;;
60665;SDS011;59128;44.642;21.188;2022-10-31T05:38:28;105.77;;;56.17;;
60665;SDS011;59128;44.642;21.188;2022-10-31T05:40:55;89.85;;;55.67;;
60665;SDS011;59128;44.642;21.188;2022-10-31T05:43:26;75.10;;;50.67;;
60665;SDS011;59128;44.642;21.188;2022-10-31T05:45:55;82.17;;;51.17;;
60665;SDS011;59128;44.642;21.188;2022-10-31T05:48:21;104.47;;;52.40;;
60665;SDS011;59128;44.642;21.188;2022-10-31T05:50:48;111.78;;;57.67;;
60665;SDS011;59128;44.642;21.188;2022-10-31T05:53:14;145.68;;;55.70;;
60665;SDS011;59128;44.642;21.188;2022-10-31T05:55:41;120.72;;;56.30;;
60665;SDS011;59128;44.642;21.188;2022-10-31T05:58:08;109.45;;;54.33;;
60665;SDS011;59128;44.642;21.188;2022-10-31T06:00:34;79.38;;;50.60;;
60665;SDS011;59128;44.642;21.188;2022-10-31T06:03:00;121.38;;;58.00;;
60665;SDS011;59128;44.642;21.188;2022-10-31T06:05:28;114.63;;;58.25;;
60665;SDS011;59128;44.642;21.188;2022-10-31T06:07:54;200.45;;;60.40;;
60665;SDS011;59128;44.642;21.188;2022-10-31T06:10:20;179.77;;;62.05;;
60665;SDS011;59128;44.642;21.188;2022-10-31T06:12:47;121.05;;;58.35;;
60665;SDS011;59128;44.642;21.188;2022-10-31T06:15:14;141.13;;;62.03;;
60665;SDS011;59128;44.642;21.188;2022-10-31T06:17:40;128.68;;;58.63;;
60665;SDS011;59128;44.642;21.188;2022-10-31T06:20:06;177.03;;;59.47;;
60665;SDS011;59128;44.642;21.188;2022-10-31T06:22:32;117.27;;;58.73;;
60665;SDS011;59128;44.642;21.188;2022-10-31T06:24:58;142.20;;;55.30;;
60665;SDS011;59128;44.642;21.188;2022-10-31T06:27:25;144.50;;;57.53;;
60665;SDS011;59128;44.642;21.188;2022-10-31T06:29:51;132.30;;;51.10;;
60665;SDS011;59128;44.642;21.188;2022-10-31T06:32:17;95.78;;;50.55;;
60665;SDS011;59128;44.642;21.188;2022-10-31T06:34:43;103.30;;;46.08;;
60665;SDS011;59128;44.642;21.188;2022-10-31T06:37:13;88.30;;;44.55;;
60665;SDS011;59128;44.642;21.188;2022-10-31T06:39:39;90.55;;;48.17;;
60665;SDS011;59128;44.642;21.188;2022-10-31T06:42:05;92.40;;;49.70;;
60665;SDS011;59128;44.642;21.188;2022-10-31T06:44:31;74.88;;;42.30;;
60665;SDS011;59128;44.642;21.188;2022-10-31T06:46:58;68.60;;;43.28;;
60665;SDS011;59128;44.642;21.188;2022-10-31T06:49:24;74.22;;;40.40;;
60665;SDS011;59128;44.642;21.188;2022-10-31T06:51:50;83.68;;;48.42;;
60665;SDS011;59128;44.642;21.188;2022-10-31T06:54:16;84.45;;;46.90;;
60665;SDS011;59128;44.642;21.188;2022-10-31T06:56:45;75.32;;;45.00;;
60665;SDS011;59128;44.642;21.188;2022-10-31T06:59:12;93.75;;;55.40;;
60665;SDS011;59128;44.642;21.188;2022-10-31T07:01:38;98.82;;;51.33;;
60665;SDS011;59128;44.642;21.188;2022-10-31T07:04:04;95.32;;;45.83;;
60665;SDS011;59128;44.642;21.188;2022-10-31T07:06:30;95.85;;;45.67;;
60665;SDS011;59128;44.642;21.188;2022-10-31T07:08:56;84.05;;;48.05;;
60665;SDS011;59128;44.642;21.188;2022-10-31T07:11:22;90.97;;;51.95;;
60665;SDS011;59128;44.642;21.188;2022-10-31T07:13:48;88.75;;;53.25;;
60665;SDS011;59128;44.642;21.188;2022-10-31T07:16:14;85.55;;;53.05;;
60665;SDS011;59128;44.642;21.188;2022-10-31T07:18:40;86.53;;;52.92;;
60665;SDS011;59128;44.642;21.188;2022-10-31T07:21:06;90.07;;;55.73;;
60665;SDS011;59128;44.642;21.188;2022-10-31T07:23:32;106.10;;;59.28;;
60665;SDS011;59128;44.642;21.188;2022-10-31T07:25:58;135.77;;;64.90;;
60665;SDS011;59128;44.642;21.188;2022-10-31T07:28:25;132.77;;;68.13;;
60665;SDS011;59128;44.642;21.188;2022-10-31T07:30:52;165.95;;;68.35;;
60665;SDS011;59128;44.642;21.188;2022-10-31T07:33:18;126.50;;;68.47;;
60665;SDS011;59128;44.642;21.188;2022-10-31T07:35:44;116.28;;;65.30;;
60665;SDS011;59128;44.642;21.188;2022-10-31T07:38:11;105.82;;;64.03;;
60665;SDS011;59128;44.642;21.188;2022-10-31T07:40:38;104.60;;;62.65;;
60665;SDS011;59128;44.642;21.188;2022-10-31T07:43:04;105.47;;;61.43;;
60665;SDS011;59128;44.642;21.188;2022-10-31T07:45:30;108.20;;;62.47;;
60665;SDS011;59128;44.642;21.188;2022-10-31T07:47:56;108.90;;;64.07;;
60665;SDS011;59128;44.642;21.188;2022-10-31T07:50:23;111.28;;;65.93;;
60665;SDS011;59128;44.642;21.188;2022-10-31T07:55:25;117.75;;;70.00;;
60665;SDS011;59128;44.642;21.188;2022-10-31T07:57:55;119.05;;;71.25;;
60665;SDS011;59128;44.642;21.188;2022-10-31T08:00:21;116.85;;;70.80;;
60665;SDS011;59128;44.642;21.188;2022-10-31T08:02:47;128.43;;;73.13;;
60665;SDS011;59128;44.642;21.188;2022-10-31T08:05:14;147.10;;;81.45;;
60665;SDS011;59128;44.642;21.188;2022-10-31T08:07:40;134.48;;;73.80;;
60665;SDS011;59128;44.642;21.188;2022-10-31T08:10:06;130.75;;;73.50;;
60665;SDS011;59128;44.642;21.188;2022-10-31T08:12:32;141.10;;;76.32;;
60665;SDS011;59128;44.642;21.188;2022-10-31T08:14:58;177.35;;;81.50;;
60665;SDS011;59128;44.642;21.188;2022-10-31T08:17:24;138.00;;;74.63;;
60665;SDS011;59128;44.642;21.188;2022-10-31T08:19:50;160.73;;;76.85;;
60665;SDS011;59128;44.642;21.188;2022-10-31T08:22:16;139.43;;;76.80;;
60665;SDS011;59128;44.642;21.188;2022-10-31T08:24:42;146.68;;;77.45;;
60665;SDS011;59128;44.642;21.188;2022-10-31T08:27:08;141.02;;;75.43;;
60665;SDS011;59128;44.642;21.188;2022-10-31T08:29:34;136.00;;;76.85;;
60665;SDS011;59128;44.642;21.188;2022-10-31T08:32:00;139.85;;;74.65;;
60665;SDS011;59128;44.642;21.188;2022-10-31T08:34:26;135.63;;;73.35;;
60665;SDS011;59128;44.642;21.188;2022-10-31T08:36:52;138.50;;;73.80;;
60665;SDS011;59128;44.642;21.188;2022-10-31T08:39:18;134.52;;;73.43;;
60665;SDS011;59128;44.642;21.188;2022-10-31T08:41:44;111.60;;;65.50;;
60665;SDS011;59128;44.642;21.188;2022-10-31T08:44:10;123.30;;;70.53;;
60665;SDS011;59128;44.642;21.188;2022-10-31T08:46:36;120.30;;;68.20;;
60665;SDS011;59128;44.642;21.188;2022-10-31T08:49:02;121.13;;;68.93;;
60665;SDS011;59128;44.642;21.188;2022-10-31T08:51:28;127.15;;;70.20;;
60665;SDS011;59128;44.642;21.188;2022-10-31T08:53:54;127.77;;;72.07;;
60665;SDS011;59128;44.642;21.188;2022-10-31T08:56:20;128.90;;;71.53;;
60665;SDS011;59128;44.642;21.188;2022-10-31T08:58:47;133.33;;;72.27;;
60665;SDS011;59128;44.642;21.188;2022-10-31T09:01:13;143.65;;;73.32;;
60665;SDS011;59128;44.642;21.188;2022-10-31T09:03:39;155.27;;;77.90;;
60665;SDS011;59128;44.642;21.188;2022-10-31T09:06:05;170.88;;;80.63;;
60665;SDS011;59128;44.642;21.188;2022-10-31T09:08:33;137.65;;;74.05;;
60665;SDS011;59128;44.642;21.188;2022-10-31T09:11:00;188.73;;;82.25;;
60665;SDS011;59128;44.642;21.188;2022-10-31T09:13:27;171.90;;;81.20;;
60665;SDS011;59128;44.642;21.188;2022-10-31T09:15:53;170.45;;;82.93;;
60665;SDS011;59128;44.642;21.188;2022-10-31T09:18:20;157.38;;;80.63;;
60665;SDS011;59128;44.642;21.188;2022-10-31T09:20:46;138.35;;;76.22;;
60665;SDS011;59128;44.642;21.188;2022-10-31T09:23:22;142.50;;;75.35;;
60665;SDS011;59128;44.642;21.188;2022-10-31T09:25:49;139.37;;;75.30;;
60665;SDS011;59128;44.642;21.188;2022-10-31T09:28:16;144.90;;;76.68;;
60665;SDS011;59128;44.642;21.188;2022-10-31T09:30:45;177.80;;;83.00;;
60665;SDS011;59128;44.642;21.188;2022-10-31T09:33:11;163.77;;;81.80;;
60665;SDS011;59128;44.642;21.188;2022-10-31T09:35:38;150.32;;;80.03;;
60665;SDS011;59128;44.642;21.188;2022-10-31T09:38:05;123.30;;;72.15;;
60665;SDS011;59128;44.642;21.188;2022-10-31T09:40:41;109.78;;;68.43;;
60665;SDS011;59128;44.642;21.188;2022-10-31T09:50:55;110.90;;;68.35;;
60665;SDS011;59128;44.642;21.188;2022-10-31T09:53:29;100.40;;;63.05;;
60665;SDS011;59128;44.642;21.188;2022-10-31T09:55:57;101.97;;;65.63;;
60665;SDS011;59128;44.642;21.188;2022-10-31T09:58:26;103.50;;;66.68;;
60665;SDS011;59128;44.642;21.188;2022-10-31T10:00:53;95.88;;;63.17;;
60665;SDS011;59128;44.642;21.188;2022-10-31T10:08:37;103.03;;;66.32;;
60665;SDS011;59128;44.642;21.188;2022-10-31T10:24:17;111.07;;;74.10;;
60665;SDS011;59128;44.642;21.188;2022-10-31T10:26:46;108.05;;;71.95;;
60665;SDS011;59128;44.642;21.188;2022-10-31T10:31:45;100.30;;;67.47;;
60665;SDS011;59128;44.642;21.188;2022-10-31T10:36:47;98.72;;;67.25;;
60665;SDS011;59128;44.642;21.188;2022-10-31T10:39:17;96.15;;;65.95;;
60665;SDS011;59128;44.642;21.188;2022-10-31T10:41:45;95.20;;;65.82;;
60665;SDS011;59128;44.642;21.188;2022-10-31T10:44:33;96.88;;;66.60;;
60665;SDS011;59128;44.642;21.188;2022-10-31T10:47:17;93.88;;;65.18;;
60665;SDS011;59128;44.642;21.188;2022-10-31T10:50:06;102.03;;;67.43;;
60665;SDS011;59128;44.642;21.188;2022-10-31T10:52:57;102.75;;;67.00;;
60665;SDS011;59128;44.642;21.188;2022-10-31T10:55:34;99.57;;;67.63;;
60665;SDS011;59128;44.642;21.188;2022-10-31T10:58:08;95.85;;;65.68;;
60665;SDS011;59128;44.642;21.188;2022-10-31T11:03:00;93.63;;;66.43;;
60665;SDS011;59128;44.642;21.188;2022-10-31T11:05:46;96.77;;;67.90;;
60665;SDS011;59128;44.642;21.188;2022-10-31T11:08:55;91.70;;;65.10;;
60665;SDS011;59128;44.642;21.188;2022-10-31T11:13:34;93.70;;;65.63;;
60665;SDS011;59128;44.642;21.188;2022-10-31T11:16:02;93.30;;;66.93;;
60665;SDS011;59128;44.642;21.188;2022-10-31T11:18:30;87.05;;;64.43;;
60665;SDS011;59128;44.642;21.188;2022-10-31T11:20:57;90.73;;;65.37;;
60665;SDS011;59128;44.642;21.188;2022-10-31T11:23:24;85.60;;;63.60;;
60665;SDS011;59128;44.642;21.188;2022-10-31T11:26:00;88.22;;;65.00;;
60665;SDS011;59128;44.642;21.188;2022-10-31T11:28:27;85.57;;;63.42;;
60665;SDS011;59128;44.642;21.188;2022-10-31T11:33:34;86.33;;;63.77;;
60665;SDS011;59128;44.642;21.188;2022-10-31T11:36:02;88.30;;;64.32;;
60665;SDS011;59128;44.642;21.188;2022-10-31T11:38:31;87.28;;;65.10;;
60665;SDS011;59128;44.642;21.188;2022-10-31T11:41:18;86.60;;;62.33;;
60665;SDS011;59128;44.642;21.188;2022-10-31T11:46:58;84.05;;;62.80;;
60665;SDS011;59128;44.642;21.188;2022-10-31T11:51:55;85.28;;;63.97;;
60665;SDS011;59128;44.642;21.188;2022-10-31T11:54:27;83.20;;;61.42;;
60665;SDS011;59128;44.642;21.188;2022-10-31T11:56:54;84.95;;;62.92;;
60665;SDS011;59128;44.642;21.188;2022-10-31T11:59:28;87.43;;;63.45;;
60665;SDS011;59128;44.642;21.188;2022-10-31T12:01:55;84.00;;;63.53;;
60665;SDS011;59128;44.642;21.188;2022-10-31T12:04:23;83.47;;;61.58;;
60665;SDS011;59128;44.642;21.188;2022-10-31T12:06:53;80.63;;;60.13;;
60665;SDS011;59128;44.642;21.188;2022-10-31T12:09:23;82.63;;;60.78;;
60665;SDS011;59128;44.642;21.188;2022-10-31T12:16:53;69.57;;;52.95;;
60665;SDS011;59128;44.642;21.188;2022-10-31T12:40:16;64.57;;;49.97;;
60665;SDS011;59128;44.642;21.188;2022-10-31T12:48:10;72.88;;;55.55;;
60665;SDS011;59128;44.642;21.188;2022-10-31T12:55:58;71.23;;;55.23;;
60665;SDS011;59128;44.642;21.188;2022-10-31T12:58:32;74.60;;;55.22;;
60665;SDS011;59128;44.642;21.188;2022-10-31T13:01:06;73.45;;;54.92;;
60665;SDS011;59128;44.642;21.188;2022-10-31T13:06:19;70.00;;;53.50;;
60665;SDS011;59128;44.642;21.188;2022-10-31T13:08:47;74.63;;;54.83;;
60665;SDS011;59128;44.642;21.188;2022-10-31T13:11:16;78.07;;;56.45;;
60665;SDS011;59128;44.642;21.188;2022-10-31T13:13:51;77.70;;;57.85;;
60665;SDS011;59128;44.642;21.188;2022-10-31T13:16:21;77.28;;;57.03;;
60665;SDS011;59128;44.642;21.188;2022-10-31T13:18:52;80.45;;;56.38;;
60665;SDS011;59128;44.642;21.188;2022-10-31T13:21:42;78.15;;;55.25;;
60665;SDS011;59128;44.642;21.188;2022-10-31T13:24:09;76.82;;;54.85;;
60665;SDS011;59128;44.642;21.188;2022-10-31T13:26:42;77.35;;;54.35;;
60665;SDS011;59128;44.642;21.188;2022-10-31T13:31:38;73.10;;;53.58;;
60665;SDS011;59128;44.642;21.188;2022-10-31T13:34:08;75.25;;;51.85;;
60665;SDS011;59128;44.642;21.188;2022-10-31T13:36:39;75.53;;;53.03;;
60665;SDS011;59128;44.642;21.188;2022-10-31T13:44:21;74.88;;;52.40;;
60665;SDS011;59128;44.642;21.188;2022-10-31T13:46:51;72.60;;;50.60;;
60665;SDS011;59128;44.642;21.188;2022-10-31T13:54:38;72.88;;;50.25;;
60665;SDS011;59128;44.642;21.188;2022-10-31T13:59:53;72.68;;;51.55;;
60665;SDS011;59128;44.642;21.188;2022-10-31T14:02:24;73.60;;;50.80;;
60665;SDS011;59128;44.642;21.188;2022-10-31T14:04:52;72.78;;;51.50;;
60665;SDS011;59128;44.642;21.188;2022-10-31T14:07:21;75.13;;;52.75;;
60665;SDS011;59128;44.642;21.188;2022-10-31T14:14:51;78.88;;;54.47;;
60665;SDS011;59128;44.642;21.188;2022-10-31T14:17:20;78.07;;;52.83;;
60665;SDS011;59128;44.642;21.188;2022-10-31T14:20:47;76.82;;;53.30;;
60665;SDS011;59128;44.642;21.188;2022-10-31T14:22:42;76.85;;;52.92;;
60665;SDS011;59128;44.642;21.188;2022-10-31T14:28:20;82.68;;;54.10;;
60665;SDS011;59128;44.642;21.188;2022-10-31T14:30:56;85.80;;;56.78;;
60665;SDS011;59128;44.642;21.188;2022-10-31T14:33:24;77.15;;;53.20;;
60665;SDS011;59128;44.642;21.188;2022-10-31T14:35:53;69.43;;;50.20;;
60665;SDS011;59128;44.642;21.188;2022-10-31T14:41:04;67.53;;;48.90;;
60665;SDS011;59128;44.642;21.188;2022-10-31T14:46:01;66.65;;;49.05;;
60665;SDS011;59128;44.642;21.188;2022-10-31T14:51:14;71.18;;;50.05;;
60665;SDS011;59128;44.642;21.188;2022-10-31T14:53:50;171.57;;;110.87;;
60665;SDS011;59128;44.642;21.188;2022-10-31T14:56:23;223.73;;;149.38;;
60665;SDS011;59128;44.642;21.188;2022-10-31T14:58:50;172.68;;;121.32;;
60665;SDS011;59128;44.642;21.188;2022-10-31T15:01:29;157.13;;;112.68;;
60665;SDS011;59128;44.642;21.188;2022-10-31T15:04:03;109.28;;;77.20;;
60665;SDS011;59128;44.642;21.188;2022-10-31T15:06:30;113.07;;;82.70;;
60665;SDS011;59128;44.642;21.188;2022-10-31T15:09:01;93.50;;;68.63;;
60665;SDS011;59128;44.642;21.188;2022-10-31T15:11:27;105.57;;;76.45;;
60665;SDS011;59128;44.642;21.188;2022-10-31T15:13:54;98.93;;;73.47;;
60665;SDS011;59128;44.642;21.188;2022-10-31T15:16:21;87.00;;;64.90;;
60665;SDS011;59128;44.642;21.188;2022-10-31T15:18:49;78.72;;;59.50;;
60665;SDS011;59128;44.642;21.188;2022-10-31T15:21:16;83.20;;;58.83;;
60665;SDS011;59128;44.642;21.188;2022-10-31T15:23:42;79.22;;;57.92;;
60665;SDS011;59128;44.642;21.188;2022-10-31T15:26:18;78.07;;;56.57;;
60665;SDS011;59128;44.642;21.188;2022-10-31T15:28:46;78.30;;;55.15;;
60665;SDS011;59128;44.642;21.188;2022-10-31T15:31:13;80.38;;;55.88;;
60665;SDS011;59128;44.642;21.188;2022-10-31T15:33:41;81.85;;;59.33;;
60665;SDS011;59128;44.642;21.188;2022-10-31T15:36:28;88.78;;;62.88;;
60665;SDS011;59128;44.642;21.188;2022-10-31T15:38:55;89.23;;;62.77;;
60665;SDS011;59128;44.642;21.188;2022-10-31T15:41:33;91.75;;;64.88;;
60665;SDS011;59128;44.642;21.188;2022-10-31T15:44:06;88.93;;;63.47;;
60665;SDS011;59128;44.642;21.188;2022-10-31T15:46:36;100.80;;;68.97;;
60665;SDS011;59128;44.642;21.188;2022-10-31T15:49:02;100.20;;;67.85;;
60665;SDS011;59128;44.642;21.188;2022-10-31T15:51:31;92.38;;;66.28;;
60665;SDS011;59128;44.642;21.188;2022-10-31T15:53:58;98.13;;;68.60;;
60665;SDS011;59128;44.642;21.188;2022-10-31T15:56:26;104.95;;;75.53;;
60665;SDS011;59128;44.642;21.188;2022-10-31T15:58:53;126.30;;;91.78;;
60665;SDS011;59128;44.642;21.188;2022-10-31T16:06:58;111.68;;;86.30;;
60665;SDS011;59128;44.642;21.188;2022-10-31T16:09:25;110.93;;;80.50;;
60665;SDS011;59128;44.642;21.188;2022-10-31T16:11:51;109.38;;;79.90;;
60665;SDS011;59128;44.642;21.188;2022-10-31T16:14:18;112.85;;;79.38;;
60665;SDS011;59128;44.642;21.188;2022-10-31T16:16:48;116.22;;;82.80;;
60665;SDS011;59128;44.642;21.188;2022-10-31T16:19:57;113.60;;;83.82;;
60665;SDS011;59128;44.642;21.188;2022-10-31T16:24:35;114.03;;;81.07;;
60665;SDS011;59128;44.642;21.188;2022-10-31T16:27:03;106.70;;;78.90;;
60665;SDS011;59128;44.642;21.188;2022-10-31T16:29:41;108.50;;;79.28;;
60665;SDS011;59128;44.642;21.188;2022-10-31T16:32:24;107.95;;;78.03;;
60665;SDS011;59128;44.642;21.188;2022-10-31T16:34:57;111.57;;;77.65;;
60665;SDS011;59128;44.642;21.188;2022-10-31T16:37:23;106.88;;;76.80;;
60665;SDS011;59128;44.642;21.188;2022-10-31T16:39:49;107.55;;;76.18;;
60665;SDS011;59128;44.642;21.188;2022-10-31T16:42:15;103.33;;;75.07;;
60665;SDS011;59128;44.642;21.188;2022-10-31T16:44:41;105.22;;;76.70;;
60665;SDS011;59128;44.642;21.188;2022-10-31T16:49:35;104.32;;;76.65;;